sensor_id;sensor_type;location;lat;lon;timestamp;pressure;altitude;pressure_sealevel;temperature;humidity
17311;BME280;8773;43.300;0.394;2023-03-23T00:01:27;99208.44;;;14.14;57.25
17311;BME280;8773;43.300;0.394;2023-03-23T00:03:58;99197.59;;;14.22;57.03
17311;BME280;8773;43.300;0.394;2023-03-23T00:06:26;99205.91;;;14.27;56.45
17311;BME280;8773;43.300;0.394;2023-03-23T00:08:58;99200.13;;;14.30;56.53
17311;BME280;8773;43.300;0.394;2023-03-23T00:11:31;99198.47;;;14.29;57.02
17311;BME280;8773;43.300;0.394;2023-03-23T00:13:59;99205.91;;;14.27;57.03
17311;BME280;8773;43.300;0.394;2023-03-23T00:16:29;99198.03;;;14.26;56.57
17311;BME280;8773;43.300;0.394;2023-03-23T00:19:00;99200.00;;;14.17;57.44
17311;BME280;8773;43.300;0.394;2023-03-23T00:21:30;99197.94;;;14.13;57.71
17311;BME280;8773;43.300;0.394;2023-03-23T00:24:02;99195.81;;;14.08;58.15
17311;BME280;8773;43.300;0.394;2023-03-23T00:26:31;99193.44;;;13.98;58.37
17311;BME280;8773;43.300;0.394;2023-03-23T00:29:00;99202.28;;;13.78;58.99
17311;BME280;8773;43.300;0.394;2023-03-23T00:31:28;99197.50;;;13.58;59.65
17311;BME280;8773;43.300;0.394;2023-03-23T00:34:00;99196.25;;;13.39;60.27
17311;BME280;8773;43.300;0.394;2023-03-23T00:36:29;99192.81;;;13.31;60.80
17311;BME280;8773;43.300;0.394;2023-03-23T00:38:57;99208.56;;;13.19;61.39
17311;BME280;8773;43.300;0.394;2023-03-23T00:41:25;99200.78;;;13.39;60.65
17311;BME280;8773;43.300;0.394;2023-03-23T00:43:54;99196.66;;;13.22;61.24
17311;BME280;8773;43.300;0.394;2023-03-23T00:46:21;99196.38;;;13.17;61.43
17311;BME280;8773;43.300;0.394;2023-03-23T00:48:48;99196.50;;;13.45;60.24
17311;BME280;8773;43.300;0.394;2023-03-23T00:51:18;99202.13;;;13.64;59.84
17311;BME280;8773;43.300;0.394;2023-03-23T00:53:45;99194.84;;;13.58;59.80
17311;BME280;8773;43.300;0.394;2023-03-23T00:56:13;99197.50;;;13.58;60.33
17311;BME280;8773;43.300;0.394;2023-03-23T00:58:40;99201.19;;;13.72;59.79
17311;BME280;8773;43.300;0.394;2023-03-23T01:01:08;99193.78;;;13.74;59.81
17311;BME280;8773;43.300;0.394;2023-03-23T01:03:35;99195.72;;;13.80;59.72
17311;BME280;8773;43.300;0.394;2023-03-23T01:06:07;99188.75;;;13.86;59.31
17311;BME280;8773;43.300;0.394;2023-03-23T01:08:39;99185.44;;;13.84;59.36
17311;BME280;8773;43.300;0.394;2023-03-23T01:11:12;99178.59;;;13.81;59.48
17311;BME280;8773;43.300;0.394;2023-03-23T01:13:40;99174.44;;;13.79;59.68
17311;BME280;8773;43.300;0.394;2023-03-23T01:16:07;99178.53;;;13.74;59.95
17311;BME280;8773;43.300;0.394;2023-03-23T01:18:34;99175.31;;;13.64;59.83
17311;BME280;8773;43.300;0.394;2023-03-23T01:21:04;99165.16;;;13.45;60.06
17311;BME280;8773;43.300;0.394;2023-03-23T01:23:32;99167.09;;;13.51;59.90
17311;BME280;8773;43.300;0.394;2023-03-23T01:26:04;99171.06;;;13.55;59.75
17311;BME280;8773;43.300;0.394;2023-03-23T01:28:31;99167.47;;;13.48;59.33
17311;BME280;8773;43.300;0.394;2023-03-23T01:31:00;99164.78;;;13.48;59.27
17311;BME280;8773;43.300;0.394;2023-03-23T01:33:27;99160.44;;;13.47;58.94
17311;BME280;8773;43.300;0.394;2023-03-23T01:35:54;99166.81;;;13.46;58.92
17311;BME280;8773;43.300;0.394;2023-03-23T01:38:21;99159.00;;;13.30;59.40
17311;BME280;8773;43.300;0.394;2023-03-23T01:40:48;99159.44;;;13.33;59.45
17311;BME280;8773;43.300;0.394;2023-03-23T01:43:16;99168.06;;;13.29;59.37
17311;BME280;8773;43.300;0.394;2023-03-23T01:45:43;99164.94;;;13.25;59.79
17311;BME280;8773;43.300;0.394;2023-03-23T01:48:14;99162.53;;;13.16;59.97
17311;BME280;8773;43.300;0.394;2023-03-23T01:50:48;99165.41;;;13.14;60.21
17311;BME280;8773;43.300;0.394;2023-03-23T01:53:17;99168.00;;;13.07;60.09
17311;BME280;8773;43.300;0.394;2023-03-23T01:55:46;99154.22;;;13.11;60.28
17311;BME280;8773;43.300;0.394;2023-03-23T01:58:19;99163.28;;;13.10;59.97
17311;BME280;8773;43.300;0.394;2023-03-23T02:00:51;99160.16;;;13.06;59.60
17311;BME280;8773;43.300;0.394;2023-03-23T02:03:19;99164.94;;;13.11;59.90
17311;BME280;8773;43.300;0.394;2023-03-23T02:05:49;99158.00;;;13.16;59.33
17311;BME280;8773;43.300;0.394;2023-03-23T02:08:17;99158.47;;;13.20;59.42
17311;BME280;8773;43.300;0.394;2023-03-23T02:10:44;99152.66;;;13.01;59.99
17311;BME280;8773;43.300;0.394;2023-03-23T02:13:12;99151.09;;;13.07;59.68
17311;BME280;8773;43.300;0.394;2023-03-23T02:15:46;99149.59;;;13.04;59.98
17311;BME280;8773;43.300;0.394;2023-03-23T02:18:28;99152.09;;;13.06;59.55
17311;BME280;8773;43.300;0.394;2023-03-23T02:24:06;99143.03;;;13.07;59.23
17311;BME280;8773;43.300;0.394;2023-03-23T02:26:47;99133.34;;;13.21;59.13
17311;BME280;8773;43.300;0.394;2023-03-23T02:29:44;99139.56;;;13.28;58.78
17311;BME280;8773;43.300;0.394;2023-03-23T02:32:25;99133.34;;;13.21;58.59
17311;BME280;8773;43.300;0.394;2023-03-23T02:35:01;99127.78;;;13.22;58.71
17311;BME280;8773;43.300;0.394;2023-03-23T02:37:32;99123.31;;;13.29;58.21
17311;BME280;8773;43.300;0.394;2023-03-23T02:40:06;99131.06;;;13.39;57.93
17311;BME280;8773;43.300;0.394;2023-03-23T02:42:38;99128.63;;;13.44;57.77
17311;BME280;8773;43.300;0.394;2023-03-23T02:45:08;99136.31;;;13.47;57.88
17311;BME280;8773;43.300;0.394;2023-03-23T02:47:38;99141.09;;;13.52;57.65
17311;BME280;8773;43.300;0.394;2023-03-23T02:50:11;99112.81;;;13.49;57.62
17311;BME280;8773;43.300;0.394;2023-03-23T02:52:41;99127.69;;;13.66;57.08
17311;BME280;8773;43.300;0.394;2023-03-23T02:55:11;99127.72;;;13.73;56.69
17311;BME280;8773;43.300;0.394;2023-03-23T02:57:39;99128.19;;;13.77;56.74
17311;BME280;8773;43.300;0.394;2023-03-23T03:00:07;99131.50;;;13.79;56.65
17311;BME280;8773;43.300;0.394;2023-03-23T03:02:38;99133.56;;;13.77;56.95
17311;BME280;8773;43.300;0.394;2023-03-23T03:05:16;99132.78;;;13.83;56.75
17311;BME280;8773;43.300;0.394;2023-03-23T03:07:50;99134.00;;;13.80;56.72
17311;BME280;8773;43.300;0.394;2023-03-23T03:10:25;99129.84;;;13.78;56.67
17311;BME280;8773;43.300;0.394;2023-03-23T03:12:57;99134.75;;;13.74;56.57
17311;BME280;8773;43.300;0.394;2023-03-23T03:15:30;99137.63;;;13.72;56.57
17311;BME280;8773;43.300;0.394;2023-03-23T03:18:07;99146.59;;;13.80;56.63
17311;BME280;8773;43.300;0.394;2023-03-23T03:20:41;99144.53;;;13.82;56.37
17311;BME280;8773;43.300;0.394;2023-03-23T03:23:10;99144.66;;;13.73;56.57
17311;BME280;8773;43.300;0.394;2023-03-23T03:25:39;99146.31;;;13.74;56.24
17311;BME280;8773;43.300;0.394;2023-03-23T03:28:08;99148.63;;;13.78;56.52
17311;BME280;8773;43.300;0.394;2023-03-23T03:30:37;99152.41;;;13.83;56.37
17311;BME280;8773;43.300;0.394;2023-03-23T03:33:05;99147.78;;;13.77;56.38
17311;BME280;8773;43.300;0.394;2023-03-23T03:35:36;99141.22;;;13.80;56.30
17311;BME280;8773;43.300;0.394;2023-03-23T03:38:10;99149.47;;;13.78;56.71
17311;BME280;8773;43.300;0.394;2023-03-23T03:40:37;99152.53;;;13.75;56.57
17311;BME280;8773;43.300;0.394;2023-03-23T03:43:05;99155.41;;;13.73;56.61
17311;BME280;8773;43.300;0.394;2023-03-23T03:45:33;99151.16;;;13.64;56.92
17311;BME280;8773;43.300;0.394;2023-03-23T03:48:00;99149.50;;;13.63;56.72
17311;BME280;8773;43.300;0.394;2023-03-23T03:50:28;99147.94;;;13.69;56.61
17311;BME280;8773;43.300;0.394;2023-03-23T03:52:55;99143.59;;;13.53;57.13
17311;BME280;8773;43.300;0.394;2023-03-23T03:55:24;99146.56;;;13.58;57.13
17311;BME280;8773;43.300;0.394;2023-03-23T03:57:53;99151.16;;;13.64;56.75
17311;BME280;8773;43.300;0.394;2023-03-23T04:00:20;99155.69;;;13.64;56.67
17311;BME280;8773;43.300;0.394;2023-03-23T04:02:49;99158.88;;;13.67;56.81
17311;BME280;8773;43.300;0.394;2023-03-23T04:05:20;99166.09;;;13.67;56.58
17311;BME280;8773;43.300;0.394;2023-03-23T04:07:48;99168.16;;;13.71;56.43
17311;BME280;8773;43.300;0.394;2023-03-23T04:10:17;99162.91;;;13.63;56.19
17311;BME280;8773;43.300;0.394;2023-03-23T04:12:48;99170.31;;;13.61;56.22
17311;BME280;8773;43.300;0.394;2023-03-23T04:15:15;99174.22;;;13.59;56.47
17311;BME280;8773;43.300;0.394;2023-03-23T04:17:42;99171.72;;;13.57;56.37
17311;BME280;8773;43.300;0.394;2023-03-23T04:20:10;99162.38;;;13.53;56.37
17311;BME280;8773;43.300;0.394;2023-03-23T04:22:43;99160.44;;;13.47;56.08
17311;BME280;8773;43.300;0.394;2023-03-23T04:25:11;99167.09;;;13.51;55.87
17311;BME280;8773;43.300;0.394;2023-03-23T04:27:40;99166.06;;;13.52;56.15
17311;BME280;8773;43.300;0.394;2023-03-23T04:30:12;99170.50;;;13.60;56.44
17311;BME280;8773;43.300;0.394;2023-03-23T04:32:39;99167.38;;;13.56;56.14
17311;BME280;8773;43.300;0.394;2023-03-23T04:35:09;99193.81;;;13.59;55.51
17311;BME280;8773;43.300;0.394;2023-03-23T04:37:38;99195.47;;;13.60;55.44
17311;BME280;8773;43.300;0.394;2023-03-23T04:40:07;99188.06;;;13.62;55.54
17311;BME280;8773;43.300;0.394;2023-03-23T04:42:37;99202.50;;;13.61;55.42
17311;BME280;8773;43.300;0.394;2023-03-23T04:45:05;99202.31;;;13.63;55.44
17311;BME280;8773;43.300;0.394;2023-03-23T04:47:36;99181.69;;;13.63;55.39
17311;BME280;8773;43.300;0.394;2023-03-23T04:50:07;99197.06;;;13.69;55.54
17311;BME280;8773;43.300;0.394;2023-03-23T04:52:35;99210.25;;;13.71;55.65
17311;BME280;8773;43.300;0.394;2023-03-23T04:55:04;99200.81;;;13.75;54.97
17311;BME280;8773;43.300;0.394;2023-03-23T04:57:32;99184.31;;;13.42;55.87
17311;BME280;8773;43.300;0.394;2023-03-23T05:00:00;99207.31;;;13.66;56.02
17311;BME280;8773;43.300;0.394;2023-03-23T05:02:35;99201.00;;;13.73;55.47
17311;BME280;8773;43.300;0.394;2023-03-23T05:05:02;99211.38;;;13.62;55.84
17311;BME280;8773;43.300;0.394;2023-03-23T05:07:29;99206.31;;;13.67;55.87
17311;BME280;8773;43.300;0.394;2023-03-23T05:09:56;99206.47;;;13.65;55.69
17311;BME280;8773;43.300;0.394;2023-03-23T05:12:23;99213.44;;;13.60;55.57
17311;BME280;8773;43.300;0.394;2023-03-23T05:14:50;99215.53;;;13.64;55.80
17311;BME280;8773;43.300;0.394;2023-03-23T05:17:17;99210.19;;;13.64;55.82
17311;BME280;8773;43.300;0.394;2023-03-23T05:19:45;99211.94;;;13.57;55.78
17311;BME280;8773;43.300;0.394;2023-03-23T05:22:13;99206.41;;;13.44;56.24
17311;BME280;8773;43.300;0.394;2023-03-23T05:24:40;99206.22;;;13.31;56.08
17311;BME280;8773;43.300;0.394;2023-03-23T05:27:08;99202.66;;;13.24;56.85
17311;BME280;8773;43.300;0.394;2023-03-23T05:29:35;99210.22;;;13.35;56.64
17311;BME280;8773;43.300;0.394;2023-03-23T05:32:02;99202.53;;;13.47;55.73
17311;BME280;8773;43.300;0.394;2023-03-23T05:34:30;99208.16;;;13.52;55.56
17311;BME280;8773;43.300;0.394;2023-03-23T05:36:59;99201.78;;;13.38;55.64
17311;BME280;8773;43.300;0.394;2023-03-23T05:39:28;99198.19;;;13.31;55.97
17311;BME280;8773;43.300;0.394;2023-03-23T05:41:55;99202.53;;;13.47;55.57
17311;BME280;8773;43.300;0.394;2023-03-23T05:44:22;99198.91;;;13.54;55.45
17311;BME280;8773;43.300;0.394;2023-03-23T05:46:49;99193.56;;;13.39;55.42
17311;BME280;8773;43.300;0.394;2023-03-23T05:49:16;99193.84;;;13.30;55.71
17311;BME280;8773;43.300;0.394;2023-03-23T05:51:43;99197.84;;;13.04;56.38
17311;BME280;8773;43.300;0.394;2023-03-23T05:54:12;99201.16;;;12.92;56.42
17311;BME280;8773;43.300;0.394;2023-03-23T05:56:40;99205.59;;;12.99;56.32
17311;BME280;8773;43.300;0.394;2023-03-23T05:59:06;99204.13;;;13.12;56.03
17311;BME280;8773;43.300;0.394;2023-03-23T06:01:33;99207.63;;;13.27;55.87
17311;BME280;8773;43.300;0.394;2023-03-23T06:04:00;99213.38;;;13.24;56.16
17311;BME280;8773;43.300;0.394;2023-03-23T06:06:28;99216.41;;;12.77;57.05
17311;BME280;8773;43.300;0.394;2023-03-23T06:08:56;99228.72;;;13.00;56.96
17311;BME280;8773;43.300;0.394;2023-03-23T06:11:24;99224.94;;;13.24;56.22
17311;BME280;8773;43.300;0.394;2023-03-23T06:13:52;99229.16;;;13.33;56.27
17311;BME280;8773;43.300;0.394;2023-03-23T06:16:19;99232.13;;;13.38;56.22
17311;BME280;8773;43.300;0.394;2023-03-23T06:18:46;99235.16;;;13.50;55.91
17311;BME280;8773;43.300;0.394;2023-03-23T06:21:14;99237.09;;;13.56;55.72
17311;BME280;8773;43.300;0.394;2023-03-23T06:23:40;99241.19;;;13.67;55.03
17311;BME280;8773;43.300;0.394;2023-03-23T06:26:09;99242.44;;;13.86;55.13
17311;BME280;8773;43.300;0.394;2023-03-23T06:28:39;99253.50;;;13.97;54.75
17311;BME280;8773;43.300;0.394;2023-03-23T06:31:06;99255.03;;;13.85;55.18
17311;BME280;8773;43.300;0.394;2023-03-23T06:33:34;99240.50;;;13.80;55.36
17311;BME280;8773;43.300;0.394;2023-03-23T06:36:01;99248.53;;;13.80;55.30
17311;BME280;8773;43.300;0.394;2023-03-23T06:38:28;99253.97;;;14.01;55.01
17311;BME280;8773;43.300;0.394;2023-03-23T06:40:55;99239.25;;;13.97;55.69
17311;BME280;8773;43.300;0.394;2023-03-23T06:43:23;99225.09;;;14.03;56.63
17311;BME280;8773;43.300;0.394;2023-03-23T06:45:52;99231.84;;;14.20;55.50
17311;BME280;8773;43.300;0.394;2023-03-23T06:48:18;99229.69;;;14.30;55.21
17311;BME280;8773;43.300;0.394;2023-03-23T06:50:46;99236.59;;;14.39;55.23
17311;BME280;8773;43.300;0.394;2023-03-23T06:53:13;99232.38;;;14.52;54.61
17311;BME280;8773;43.300;0.394;2023-03-23T06:55:42;99235.63;;;14.47;55.21
17311;BME280;8773;43.300;0.394;2023-03-23T06:58:09;99247.56;;;14.23;55.29
17311;BME280;8773;43.300;0.394;2023-03-23T07:00:36;99237.72;;;14.30;55.37
17311;BME280;8773;43.300;0.394;2023-03-23T07:03:05;99241.97;;;14.39;54.89
17311;BME280;8773;43.300;0.394;2023-03-23T07:05:33;99236.97;;;14.36;54.14
17311;BME280;8773;43.300;0.394;2023-03-23T07:08:00;99245.41;;;14.55;54.14
17311;BME280;8773;43.300;0.394;2023-03-23T07:10:28;99241.69;;;14.56;53.93
17311;BME280;8773;43.300;0.394;2023-03-23T07:12:55;99241.31;;;14.37;54.17
17311;BME280;8773;43.300;0.394;2023-03-23T07:15:22;99244.00;;;14.37;54.14
17311;BME280;8773;43.300;0.394;2023-03-23T07:17:49;99247.97;;;14.20;53.21
17311;BME280;8773;43.300;0.394;2023-03-23T07:20:17;99248.47;;;14.30;53.94
17311;BME280;8773;43.300;0.394;2023-03-23T07:22:44;99240.44;;;14.52;53.45
17311;BME280;8773;43.300;0.394;2023-03-23T07:25:11;99238.03;;;14.63;52.20
17311;BME280;8773;43.300;0.394;2023-03-23T07:27:38;99232.84;;;14.83;52.25
17311;BME280;8773;43.300;0.394;2023-03-23T07:30:08;99238.78;;;15.06;51.58
17311;BME280;8773;43.300;0.394;2023-03-23T07:32:35;99232.31;;;15.29;50.90
17311;BME280;8773;43.300;0.394;2023-03-23T07:35:02;99231.56;;;15.42;50.70
17311;BME280;8773;43.300;0.394;2023-03-23T07:37:31;99231.53;;;15.35;51.47
17311;BME280;8773;43.300;0.394;2023-03-23T07:39:58;99237.56;;;15.50;50.55
17311;BME280;8773;43.300;0.394;2023-03-23T07:42:25;99234.75;;;15.65;50.30
17311;BME280;8773;43.300;0.394;2023-03-23T07:44:52;99244.28;;;15.67;50.99
17311;BME280;8773;43.300;0.394;2023-03-23T07:47:19;99244.78;;;15.36;51.92
17311;BME280;8773;43.300;0.394;2023-03-23T07:49:45;99239.75;;;15.27;52.11
17311;BME280;8773;43.300;0.394;2023-03-23T07:52:12;99240.22;;;15.37;52.05
17311;BME280;8773;43.300;0.394;2023-03-23T07:54:41;99234.09;;;15.56;51.69
17311;BME280;8773;43.300;0.394;2023-03-23T07:57:08;99239.75;;;15.75;51.10
17311;BME280;8773;43.300;0.394;2023-03-23T07:59:35;99241.47;;;15.89;51.70
17311;BME280;8773;43.300;0.394;2023-03-23T08:02:02;99251.84;;;15.92;50.83
17311;BME280;8773;43.300;0.394;2023-03-23T08:04:29;99264.56;;;16.11;50.48
17311;BME280;8773;43.300;0.394;2023-03-23T08:07:02;99289.25;;;16.34;49.11
17311;BME280;8773;43.300;0.394;2023-03-23T08:09:30;99282.88;;;16.62;48.59
17311;BME280;8773;43.300;0.394;2023-03-23T08:11:58;99284.56;;;16.96;48.62
17311;BME280;8773;43.300;0.394;2023-03-23T08:14:25;99259.47;;;17.15;47.14
17311;BME280;8773;43.300;0.394;2023-03-23T08:16:53;99281.19;;;17.40;46.92
17311;BME280;8773;43.300;0.394;2023-03-23T08:19:20;99297.56;;;17.58;46.74
17311;BME280;8773;43.300;0.394;2023-03-23T08:21:48;99295.69;;;17.65;46.56
17311;BME280;8773;43.300;0.394;2023-03-23T08:24:15;99296.44;;;17.92;45.97
17311;BME280;8773;43.300;0.394;2023-03-23T08:26:42;99291.31;;;18.16;45.74
17311;BME280;8773;43.300;0.394;2023-03-23T08:29:10;99289.06;;;18.06;45.40
17311;BME280;8773;43.300;0.394;2023-03-23T08:31:38;99285.06;;;18.22;44.83
17311;BME280;8773;43.300;0.394;2023-03-23T08:34:05;99288.63;;;18.47;45.40
17311;BME280;8773;43.300;0.394;2023-03-23T08:36:33;99285.22;;;18.65;44.71
17311;BME280;8773;43.300;0.394;2023-03-23T08:39:00;99282.25;;;18.98;44.52
17311;BME280;8773;43.300;0.394;2023-03-23T08:41:30;99283.13;;;19.17;43.00
17311;BME280;8773;43.300;0.394;2023-03-23T08:43:57;99277.47;;;19.43;42.22
17311;BME280;8773;43.300;0.394;2023-03-23T08:46:25;99286.03;;;19.77;42.22
17311;BME280;8773;43.300;0.394;2023-03-23T08:48:52;99286.69;;;20.09;42.12
17311;BME280;8773;43.300;0.394;2023-03-23T08:51:19;99288.69;;;20.31;41.39
17311;BME280;8773;43.300;0.394;2023-03-23T08:53:47;99281.28;;;20.39;40.46
17311;BME280;8773;43.300;0.394;2023-03-23T08:56:14;99286.06;;;20.55;41.01
17311;BME280;8773;43.300;0.394;2023-03-23T08:58:41;99286.53;;;20.63;39.31
17311;BME280;8773;43.300;0.394;2023-03-23T09:01:08;99285.59;;;20.58;39.95
17311;BME280;8773;43.300;0.394;2023-03-23T09:03:38;99285.69;;;20.51;40.60
17311;BME280;8773;43.300;0.394;2023-03-23T09:06:07;99289.94;;;20.47;41.71
17311;BME280;8773;43.300;0.394;2023-03-23T09:08:36;99287.97;;;20.66;40.08
17311;BME280;8773;43.300;0.394;2023-03-23T09:11:05;99283.00;;;20.63;38.20
17311;BME280;8773;43.300;0.394;2023-03-23T09:13:33;99291.22;;;20.45;39.57
17311;BME280;8773;43.300;0.394;2023-03-23T09:16:00;99281.50;;;20.79;39.30
17311;BME280;8773;43.300;0.394;2023-03-23T09:18:27;99288.16;;;21.06;39.11
17311;BME280;8773;43.300;0.394;2023-03-23T09:20:55;99288.19;;;21.29;39.18
17311;BME280;8773;43.300;0.394;2023-03-23T09:23:23;99291.34;;;21.61;38.57
17311;BME280;8773;43.300;0.394;2023-03-23T09:25:50;99280.81;;;21.88;36.66
17311;BME280;8773;43.300;0.394;2023-03-23T09:28:18;99286.03;;;22.18;37.09
17311;BME280;8773;43.300;0.394;2023-03-23T09:30:45;99286.19;;;22.40;35.81
17311;BME280;8773;43.300;0.394;2023-03-23T09:33:13;99280.00;;;22.45;35.36
17311;BME280;8773;43.300;0.394;2023-03-23T09:35:41;99279.22;;;22.61;34.60
17311;BME280;8773;43.300;0.394;2023-03-23T09:38:10;99276.50;;;22.33;33.79
17311;BME280;8773;43.300;0.394;2023-03-23T09:40:42;99264.59;;;22.22;32.52
17311;BME280;8773;43.300;0.394;2023-03-23T09:43:28;99279.47;;;22.31;30.27
17311;BME280;8773;43.300;0.394;2023-03-23T09:46:03;99274.13;;;21.21;29.88
17311;BME280;8773;43.300;0.394;2023-03-23T09:48:40;99282.16;;;21.74;30.55
17311;BME280;8773;43.300;0.394;2023-03-23T09:51:17;99276.38;;;21.99;30.68
17311;BME280;8773;43.300;0.394;2023-03-23T09:53:51;99283.34;;;21.20;30.11
17311;BME280;8773;43.300;0.394;2023-03-23T09:56:19;99282.88;;;21.35;31.24
17311;BME280;8773;43.300;0.394;2023-03-23T09:58:51;99284.03;;;21.50;31.25
17311;BME280;8773;43.300;0.394;2023-03-23T10:01:22;99284.97;;;21.68;31.10
17311;BME280;8773;43.300;0.394;2023-03-23T10:03:55;99282.75;;;21.64;29.68
17311;BME280;8773;43.300;0.394;2023-03-23T10:06:25;99278.22;;;21.58;29.30
17311;BME280;8773;43.300;0.394;2023-03-23T10:08:55;99278.47;;;21.57;29.88
17311;BME280;8773;43.300;0.394;2023-03-23T10:11:42;99265.47;;;21.59;30.48
17311;BME280;8773;43.300;0.394;2023-03-23T10:14:23;99269.25;;;21.81;29.80
17311;BME280;8773;43.300;0.394;2023-03-23T10:17:00;99276.00;;;21.79;29.93
17311;BME280;8773;43.300;0.394;2023-03-23T10:19:34;99258.13;;;21.83;30.28
17311;BME280;8773;43.300;0.394;2023-03-23T10:22:08;99266.09;;;22.01;30.16
17311;BME280;8773;43.300;0.394;2023-03-23T10:24:43;99250.50;;;21.96;30.53
17311;BME280;8773;43.300;0.394;2023-03-23T10:27:20;99245.56;;;21.93;30.47
17311;BME280;8773;43.300;0.394;2023-03-23T10:29:53;99246.47;;;21.99;29.39
17311;BME280;8773;43.300;0.394;2023-03-23T10:32:37;99238.13;;;22.46;31.04
17311;BME280;8773;43.300;0.394;2023-03-23T10:35:10;99237.06;;;22.80;29.68
17311;BME280;8773;43.300;0.394;2023-03-23T10:37:43;99239.56;;;22.98;28.91
17311;BME280;8773;43.300;0.394;2023-03-23T10:40:16;99228.59;;;23.10;29.03
17311;BME280;8773;43.300;0.394;2023-03-23T10:42:45;99235.84;;;22.71;30.19
17311;BME280;8773;43.300;0.394;2023-03-23T10:45:17;99228.34;;;23.12;29.48
17311;BME280;8773;43.300;0.394;2023-03-23T10:47:51;99223.97;;;23.49;29.31
17311;BME280;8773;43.300;0.394;2023-03-23T10:50:24;99224.72;;;23.45;28.34
17311;BME280;8773;43.300;0.394;2023-03-23T10:52:57;99220.59;;;23.42;29.46
17311;BME280;8773;43.300;0.394;2023-03-23T10:55:36;99219.69;;;23.15;29.56
17311;BME280;8773;43.300;0.394;2023-03-23T10:58:06;99217.16;;;23.30;29.36
17311;BME280;8773;43.300;0.394;2023-03-23T11:00:33;99213.56;;;23.46;29.36
17311;BME280;8773;43.300;0.394;2023-03-23T11:03:25;99211.59;;;23.20;29.42
17311;BME280;8773;43.300;0.394;2023-03-23T11:05:57;99213.09;;;22.77;30.02
17311;BME280;8773;43.300;0.394;2023-03-23T11:08:28;99202.63;;;22.36;31.28
17311;BME280;8773;43.300;0.394;2023-03-23T11:10:59;99208.53;;;22.49;30.73
17311;BME280;8773;43.300;0.394;2023-03-23T11:13:30;99206.53;;;22.95;31.03
17311;BME280;8773;43.300;0.394;2023-03-23T11:15:57;99197.44;;;23.23;29.90
17311;BME280;8773;43.300;0.394;2023-03-23T11:18:26;99201.22;;;23.60;29.47
17311;BME280;8773;43.300;0.394;2023-03-23T11:20:55;99190.19;;;23.50;29.73
17311;BME280;8773;43.300;0.394;2023-03-23T11:23:24;99200.69;;;23.42;29.29
17311;BME280;8773;43.300;0.394;2023-03-23T11:25:58;99188.91;;;23.36;29.65
17311;BME280;8773;43.300;0.394;2023-03-23T11:28:29;99195.53;;;23.23;28.76
17311;BME280;8773;43.300;0.394;2023-03-23T11:30:59;99196.59;;;22.67;30.30
17311;BME280;8773;43.300;0.394;2023-03-23T11:33:36;99182.97;;;22.84;29.76
17311;BME280;8773;43.300;0.394;2023-03-23T11:36:06;99173.19;;;23.05;30.60
17311;BME280;8773;43.300;0.394;2023-03-23T11:38:34;99165.91;;;23.49;29.54
17311;BME280;8773;43.300;0.394;2023-03-23T11:41:09;99162.44;;;23.53;28.31
17311;BME280;8773;43.300;0.394;2023-03-23T11:43:40;99155.53;;;23.73;29.13
17311;BME280;8773;43.300;0.394;2023-03-23T11:46:15;99155.38;;;23.79;29.46
17311;BME280;8773;43.300;0.394;2023-03-23T11:48:55;99149.53;;;22.88;28.87
17311;BME280;8773;43.300;0.394;2023-03-23T11:51:30;99148.97;;;23.25;29.55
17311;BME280;8773;43.300;0.394;2023-03-23T11:54:06;99148.22;;;23.51;29.97
17311;BME280;8773;43.300;0.394;2023-03-23T11:56:39;99148.13;;;23.68;29.48
17311;BME280;8773;43.300;0.394;2023-03-23T11:59:11;99140.41;;;24.09;28.92
17311;BME280;8773;43.300;0.394;2023-03-23T12:02:00;98405.78;;;19.98;27.96
17311;BME280;8773;43.300;0.394;2023-03-23T12:04:45;99126.31;;;24.49;27.01
17311;BME280;8773;43.300;0.394;2023-03-23T12:07:37;99122.16;;;24.09;27.27
17311;BME280;8773;43.300;0.394;2023-03-23T12:10:20;99124.16;;;24.51;27.59
17311;BME280;8773;43.300;0.394;2023-03-23T12:12:59;99118.19;;;24.59;27.02
17311;BME280;8773;43.300;0.394;2023-03-23T12:15:36;99120.34;;;24.52;27.07
17311;BME280;8773;43.300;0.394;2023-03-23T12:18:12;99102.88;;;24.58;27.71
17311;BME280;8773;43.300;0.394;2023-03-23T12:20:51;99111.25;;;24.14;28.26
17311;BME280;8773;43.300;0.394;2023-03-23T12:23:23;99107.50;;;24.20;28.16
17311;BME280;8773;43.300;0.394;2023-03-23T12:26:06;99104.97;;;24.09;28.30
17311;BME280;8773;43.300;0.394;2023-03-23T12:28:49;99095.84;;;24.30;28.00
17311;BME280;8773;43.300;0.394;2023-03-23T12:31:21;99090.59;;;24.50;28.35
17311;BME280;8773;43.300;0.394;2023-03-23T12:33:55;99086.47;;;24.95;28.14
17311;BME280;8773;43.300;0.394;2023-03-23T12:36:46;99081.53;;;24.92;27.53
17311;BME280;8773;43.300;0.394;2023-03-23T12:39:45;99085.56;;;25.37;26.79
17311;BME280;8773;43.300;0.394;2023-03-23T12:42:21;99075.25;;;25.64;26.97
17311;BME280;8773;43.300;0.394;2023-03-23T12:44:58;99077.16;;;24.91;27.03
17311;BME280;8773;43.300;0.394;2023-03-23T12:47:35;99069.19;;;24.05;27.78
17311;BME280;8773;43.300;0.394;2023-03-23T12:50:09;99065.19;;;24.18;28.19
17311;BME280;8773;43.300;0.394;2023-03-23T12:52:45;99059.75;;;24.55;28.37
17311;BME280;8773;43.300;0.394;2023-03-23T12:55:19;99055.22;;;24.34;28.87
17311;BME280;8773;43.300;0.394;2023-03-23T12:57:52;99048.97;;;24.01;28.20
17311;BME280;8773;43.300;0.394;2023-03-23T13:00:27;99044.78;;;24.63;27.79
17311;BME280;8773;43.300;0.394;2023-03-23T13:02:58;99042.50;;;25.02;28.10
17311;BME280;8773;43.300;0.394;2023-03-23T13:05:35;99042.97;;;25.56;27.34
17311;BME280;8773;43.300;0.394;2023-03-23T13:08:08;99038.56;;;25.35;27.79
17311;BME280;8773;43.300;0.394;2023-03-23T13:10:39;99020.25;;;25.45;26.21
17311;BME280;8773;43.300;0.394;2023-03-23T13:13:14;99001.50;;;24.97;27.81
17311;BME280;8773;43.300;0.394;2023-03-23T13:15:52;99008.63;;;25.03;27.01
17311;BME280;8773;43.300;0.394;2023-03-23T13:18:27;99005.03;;;24.35;27.76
17311;BME280;8773;43.300;0.394;2023-03-23T13:21:07;99005.78;;;24.72;27.50
17311;BME280;8773;43.300;0.394;2023-03-23T13:23:40;98991.78;;;24.48;28.98
17311;BME280;8773;43.300;0.394;2023-03-23T13:26:09;98992.75;;;24.84;28.59
17311;BME280;8773;43.300;0.394;2023-03-23T13:28:49;98987.78;;;24.76;27.63
17311;BME280;8773;43.300;0.394;2023-03-23T13:31:21;98981.56;;;24.34;27.81